sensor_id;sensor_type;location;lat;lon;timestamp;P1;durP1;ratioP1;P2;durP2;ratioP2
24799;SDS011;12897;50.812;4.430;2023-06-22T00:01:50;9.98;;;4.80;;
24799;SDS011;12897;50.812;4.430;2023-06-22T00:04:33;9.18;;;4.78;;
24799;SDS011;12897;50.812;4.430;2023-06-22T00:07:06;7.30;;;4.62;;
24799;SDS011;12897;50.812;4.430;2023-06-22T00:09:35;10.43;;;4.60;;
24799;SDS011;12897;50.812;4.430;2023-06-22T00:12:11;7.15;;;4.87;;
24799;SDS011;12897;50.812;4.430;2023-06-22T00:14:40;7.20;;;5.15;;
24799;SDS011;12897;50.812;4.430;2023-06-22T00:17:11;8.20;;;4.45;;
24799;SDS011;12897;50.812;4.430;2023-06-22T00:19:40;8.95;;;4.50;;
24799;SDS011;12897;50.812;4.430;2023-06-22T00:22:09;9.35;;;5.08;;
24799;SDS011;12897;50.812;4.430;2023-06-22T00:24:39;11.48;;;5.10;;
24799;SDS011;12897;50.812;4.430;2023-06-22T00:27:08;9.23;;;5.08;;
24799;SDS011;12897;50.812;4.430;2023-06-22T00:29:37;14.10;;;5.28;;
24799;SDS011;12897;50.812;4.430;2023-06-22T00:32:09;9.50;;;5.22;;
24799;SDS011;12897;50.812;4.430;2023-06-22T00:34:42;10.55;;;4.90;;
24799;SDS011;12897;50.812;4.430;2023-06-22T00:37:17;10.32;;;4.72;;
24799;SDS011;12897;50.812;4.430;2023-06-22T00:39:45;5.75;;;4.47;;
24799;SDS011;12897;50.812;4.430;2023-06-22T00:42:15;16.10;;;5.17;;
24799;SDS011;12897;50.812;4.430;2023-06-22T00:44:42;10.72;;;5.42;;
24799;SDS011;12897;50.812;4.430;2023-06-22T00:47:18;8.75;;;4.85;;
24799;SDS011;12897;50.812;4.430;2023-06-22T00:49:53;7.83;;;4.67;;
24799;SDS011;12897;50.812;4.430;2023-06-22T00:52:26;9.78;;;4.70;;
24799;SDS011;12897;50.812;4.430;2023-06-22T00:54:59;13.72;;;5.00;;
24799;SDS011;12897;50.812;4.430;2023-06-22T00:57:36;7.83;;;4.80;;
24799;SDS011;12897;50.812;4.430;2023-06-22T01:00:14;10.53;;;5.30;;
24799;SDS011;12897;50.812;4.430;2023-06-22T01:02:38;6.37;;;4.40;;
24799;SDS011;12897;50.812;4.430;2023-06-22T01:05:14;8.23;;;4.28;;
24799;SDS011;12897;50.812;4.430;2023-06-22T01:10:44;9.13;;;3.87;;
24799;SDS011;12897;50.812;4.430;2023-06-22T01:13:32;5.95;;;3.75;;
24799;SDS011;12897;50.812;4.430;2023-06-22T01:16:05;10.85;;;4.15;;
24799;SDS011;12897;50.812;4.430;2023-06-22T01:18:26;7.90;;;4.05;;
24799;SDS011;12897;50.812;4.430;2023-06-22T01:21:13;10.72;;;4.58;;
24799;SDS011;12897;50.812;4.430;2023-06-22T01:26:42;8.60;;;4.90;;
24799;SDS011;12897;50.812;4.430;2023-06-22T01:29:09;8.65;;;4.47;;
24799;SDS011;12897;50.812;4.430;2023-06-22T01:31:40;8.23;;;5.20;;
24799;SDS011;12897;50.812;4.430;2023-06-22T01:34:16;8.35;;;4.37;;
24799;SDS011;12897;50.812;4.430;2023-06-22T01:36:50;8.05;;;4.95;;
24799;SDS011;12897;50.812;4.430;2023-06-22T01:39:23;7.62;;;4.70;;
24799;SDS011;12897;50.812;4.430;2023-06-22T01:42:02;7.70;;;4.60;;
24799;SDS011;12897;50.812;4.430;2023-06-22T01:44:45;9.58;;;5.28;;
24799;SDS011;12897;50.812;4.430;2023-06-22T01:47:03;6.00;;;4.80;;
24799;SDS011;12897;50.812;4.430;2023-06-22T01:49:34;10.80;;;5.00;;
24799;SDS011;12897;50.812;4.430;2023-06-22T01:52:10;9.40;;;5.33;;
24799;SDS011;12897;50.812;4.430;2023-06-22T01:54:56;6.75;;;4.65;;
24799;SDS011;12897;50.812;4.430;2023-06-22T01:57:16;10.53;;;5.05;;
24799;SDS011;12897;50.812;4.430;2023-06-22T02:02:35;9.95;;;5.53;;
24799;SDS011;12897;50.812;4.430;2023-06-22T02:05:07;8.33;;;5.40;;
24799;SDS011;12897;50.812;4.430;2023-06-22T02:07:45;8.63;;;5.30;;
24799;SDS011;12897;50.812;4.430;2023-06-22T02:10:16;10.60;;;5.90;;
24799;SDS011;12897;50.812;4.430;2023-06-22T02:12:50;11.88;;;5.87;;
24799;SDS011;12897;50.812;4.430;2023-06-22T02:15:41;9.15;;;5.30;;
24799;SDS011;12897;50.812;4.430;2023-06-22T02:17:58;10.50;;;4.97;;
24799;SDS011;12897;50.812;4.430;2023-06-22T02:20:28;9.23;;;5.12;;
24799;SDS011;12897;50.812;4.430;2023-06-22T02:23:00;10.10;;;4.90;;
24799;SDS011;12897;50.812;4.430;2023-06-22T02:25:34;10.70;;;5.47;;
24799;SDS011;12897;50.812;4.430;2023-06-22T02:28:08;7.40;;;5.53;;
24799;SDS011;12897;50.812;4.430;2023-06-22T02:30:44;9.70;;;5.75;;
24799;SDS011;12897;50.812;4.430;2023-06-22T02:33:10;11.75;;;5.92;;
24799;SDS011;12897;50.812;4.430;2023-06-22T02:35:42;9.25;;;5.58;;
24799;SDS011;12897;50.812;4.430;2023-06-22T02:38:10;12.78;;;5.28;;
24799;SDS011;12897;50.812;4.430;2023-06-22T02:40:41;8.70;;;5.53;;
24799;SDS011;12897;50.812;4.430;2023-06-22T02:43:10;10.82;;;5.47;;
24799;SDS011;12897;50.812;4.430;2023-06-22T02:45:37;7.10;;;4.67;;
24799;SDS011;12897;50.812;4.430;2023-06-22T02:48:09;8.18;;;5.35;;
24799;SDS011;12897;50.812;4.430;2023-06-22T02:50:38;8.88;;;5.58;;
24799;SDS011;12897;50.812;4.430;2023-06-22T02:53:10;9.60;;;5.60;;
24799;SDS011;12897;50.812;4.430;2023-06-22T02:55:39;10.65;;;5.40;;
24799;SDS011;12897;50.812;4.430;2023-06-22T02:58:08;9.73;;;5.37;;
24799;SDS011;12897;50.812;4.430;2023-06-22T03:00:38;8.58;;;5.33;;
24799;SDS011;12897;50.812;4.430;2023-06-22T03:03:09;8.68;;;5.50;;
24799;SDS011;12897;50.812;4.430;2023-06-22T03:05:36;11.45;;;6.72;;
24799;SDS011;12897;50.812;4.430;2023-06-22T03:08:17;11.80;;;6.87;;
24799;SDS011;12897;50.812;4.430;2023-06-22T03:10:51;8.68;;;6.15;;
24799;SDS011;12897;50.812;4.430;2023-06-22T03:13:18;9.98;;;6.00;;
24799;SDS011;12897;50.812;4.430;2023-06-22T03:15:55;12.98;;;6.83;;
24799;SDS011;12897;50.812;4.430;2023-06-22T03:18:19;11.63;;;7.17;;
24799;SDS011;12897;50.812;4.430;2023-06-22T03:20:48;13.55;;;7.08;;
24799;SDS011;12897;50.812;4.430;2023-06-22T03:23:16;12.25;;;7.45;;
24799;SDS011;12897;50.812;4.430;2023-06-22T03:25:45;12.70;;;7.03;;
24799;SDS011;12897;50.812;4.430;2023-06-22T03:28:14;10.70;;;6.67;;
24799;SDS011;12897;50.812;4.430;2023-06-22T03:30:49;11.73;;;6.85;;
24799;SDS011;12897;50.812;4.430;2023-06-22T03:33:15;10.55;;;7.22;;
24799;SDS011;12897;50.812;4.430;2023-06-22T03:35:46;10.55;;;6.45;;
24799;SDS011;12897;50.812;4.430;2023-06-22T03:38:14;13.18;;;6.53;;
24799;SDS011;12897;50.812;4.430;2023-06-22T03:40:43;13.72;;;6.03;;
24799;SDS011;12897;50.812;4.430;2023-06-22T03:43:14;9.30;;;6.35;;
24799;SDS011;12897;50.812;4.430;2023-06-22T03:45:49;12.10;;;6.45;;
24799;SDS011;12897;50.812;4.430;2023-06-22T03:48:18;10.43;;;6.60;;
24799;SDS011;12897;50.812;4.430;2023-06-22T03:50:45;13.08;;;6.03;;
24799;SDS011;12897;50.812;4.430;2023-06-22T03:59:23;10.23;;;6.47;;
24799;SDS011;12897;50.812;4.430;2023-06-22T04:01:52;10.60;;;6.75;;
24799;SDS011;12897;50.812;4.430;2023-06-22T04:04:32;9.33;;;6.40;;
24799;SDS011;12897;50.812;4.430;2023-06-22T04:06:59;11.08;;;5.92;;
24799;SDS011;12897;50.812;4.430;2023-06-22T04:12:37;10.93;;;6.35;;
24799;SDS011;12897;50.812;4.430;2023-06-22T04:15:02;11.20;;;7.62;;
24799;SDS011;12897;50.812;4.430;2023-06-22T04:17:32;11.20;;;7.67;;
24799;SDS011;12897;50.812;4.430;2023-06-22T04:20:02;13.28;;;7.90;;
24799;SDS011;12897;50.812;4.430;2023-06-22T04:22:39;10.32;;;7.22;;
24799;SDS011;12897;50.812;4.430;2023-06-22T04:25:13;12.33;;;6.95;;
24799;SDS011;12897;50.812;4.430;2023-06-22T04:27:44;13.98;;;7.03;;
24799;SDS011;12897;50.812;4.430;2023-06-22T04:30:23;12.98;;;7.25;;
24799;SDS011;12897;50.812;4.430;2023-06-22T04:32:59;13.72;;;6.95;;
24799;SDS011;12897;50.812;4.430;2023-06-22T04:35:36;9.63;;;6.83;;
24799;SDS011;12897;50.812;4.430;2023-06-22T04:38:09;14.00;;;6.75;;
24799;SDS011;12897;50.812;4.430;2023-06-22T04:43:21;13.32;;;7.65;;
24799;SDS011;12897;50.812;4.430;2023-06-22T04:48:32;9.73;;;6.17;;
24799;SDS011;12897;50.812;4.430;2023-06-22T04:51:00;17.00;;;6.55;;
24799;SDS011;12897;50.812;4.430;2023-06-22T04:53:31;16.05;;;7.70;;
24799;SDS011;12897;50.812;4.430;2023-06-22T04:55:59;14.75;;;8.48;;
24799;SDS011;12897;50.812;4.430;2023-06-22T04:58:28;13.25;;;6.83;;
24799;SDS011;12897;50.812;4.430;2023-06-22T05:00:57;14.85;;;7.35;;
24799;SDS011;12897;50.812;4.430;2023-06-22T05:03:27;12.68;;;7.28;;
24799;SDS011;12897;50.812;4.430;2023-06-22T05:05:56;14.83;;;7.58;;
24799;SDS011;12897;50.812;4.430;2023-06-22T05:08:24;14.28;;;7.37;;
24799;SDS011;12897;50.812;4.430;2023-06-22T05:10:54;20.08;;;7.97;;
24799;SDS011;12897;50.812;4.430;2023-06-22T05:13:23;22.85;;;9.30;;
24799;SDS011;12897;50.812;4.430;2023-06-22T05:15:53;29.67;;;11.63;;
24799;SDS011;12897;50.812;4.430;2023-06-22T05:18:22;19.80;;;10.15;;
24799;SDS011;12897;50.812;4.430;2023-06-22T05:20:58;29.72;;;13.22;;
24799;SDS011;12897;50.812;4.430;2023-06-22T05:23:22;23.62;;;13.62;;
24799;SDS011;12897;50.812;4.430;2023-06-22T05:25:51;27.50;;;13.08;;
24799;SDS011;12897;50.812;4.430;2023-06-22T05:28:28;26.42;;;13.53;;
24799;SDS011;12897;50.812;4.430;2023-06-22T05:30:52;24.12;;;14.35;;
24799;SDS011;12897;50.812;4.430;2023-06-22T05:33:19;28.98;;;14.28;;
24799;SDS011;12897;50.812;4.430;2023-06-22T05:35:50;29.02;;;14.00;;
24799;SDS011;12897;50.812;4.430;2023-06-22T05:38:19;25.68;;;14.28;;
24799;SDS011;12897;50.812;4.430;2023-06-22T05:40:48;24.40;;;14.13;;
24799;SDS011;12897;50.812;4.430;2023-06-22T05:43:29;23.35;;;14.80;;
24799;SDS011;12897;50.812;4.430;2023-06-22T05:45:49;25.30;;;15.23;;
24799;SDS011;12897;50.812;4.430;2023-06-22T05:48:22;27.30;;;15.55;;
24799;SDS011;12897;50.812;4.430;2023-06-22T05:50:46;30.90;;;16.25;;
24799;SDS011;12897;50.812;4.430;2023-06-22T05:53:15;31.45;;;17.57;;
24799;SDS011;12897;50.812;4.430;2023-06-22T05:55:57;27.32;;;14.68;;
24799;SDS011;12897;50.812;4.430;2023-06-22T05:58:14;23.05;;;14.98;;
24799;SDS011;12897;50.812;4.430;2023-06-22T06:00:42;26.23;;;15.63;;
24799;SDS011;12897;50.812;4.430;2023-06-22T06:03:15;29.67;;;15.45;;
24799;SDS011;12897;50.812;4.430;2023-06-22T06:05:44;27.70;;;15.75;;
24799;SDS011;12897;50.812;4.430;2023-06-22T06:08:14;30.82;;;15.40;;
24799;SDS011;12897;50.812;4.430;2023-06-22T06:10:42;25.95;;;15.58;;
24799;SDS011;12897;50.812;4.430;2023-06-22T06:13:12;24.50;;;15.30;;
24799;SDS011;12897;50.812;4.430;2023-06-22T06:15:40;24.00;;;15.50;;
24799;SDS011;12897;50.812;4.430;2023-06-22T06:18:09;25.68;;;15.10;;
24799;SDS011;12897;50.812;4.430;2023-06-22T06:20:42;26.23;;;16.42;;
24799;SDS011;12897;50.812;4.430;2023-06-22T06:23:08;25.37;;;16.35;;
24799;SDS011;12897;50.812;4.430;2023-06-22T06:25:36;28.50;;;17.05;;
24799;SDS011;12897;50.812;4.430;2023-06-22T06:28:03;28.77;;;16.95;;
24799;SDS011;12897;50.812;4.430;2023-06-22T06:33:03;33.20;;;18.10;;
24799;SDS011;12897;50.812;4.430;2023-06-22T06:35:34;31.07;;;17.55;;
24799;SDS011;12897;50.812;4.430;2023-06-22T06:38:28;28.60;;;18.57;;
24799;SDS011;12897;50.812;4.430;2023-06-22T06:41:10;27.37;;;18.00;;
24799;SDS011;12897;50.812;4.430;2023-06-22T06:43:41;27.80;;;18.77;;
24799;SDS011;12897;50.812;4.430;2023-06-22T06:46:12;29.02;;;18.27;;
24799;SDS011;12897;50.812;4.430;2023-06-22T06:48:41;31.80;;;19.27;;
24799;SDS011;12897;50.812;4.430;2023-06-22T06:51:18;27.10;;;19.32;;
24799;SDS011;12897;50.812;4.430;2023-06-22T06:53:45;29.35;;;18.17;;
24799;SDS011;12897;50.812;4.430;2023-06-22T06:56:13;31.68;;;19.92;;
24799;SDS011;12897;50.812;4.430;2023-06-22T06:58:48;28.55;;;19.35;;
24799;SDS011;12897;50.812;4.430;2023-06-22T07:01:18;31.52;;;19.45;;
24799;SDS011;12897;50.812;4.430;2023-06-22T07:03:47;27.52;;;18.70;;
24799;SDS011;12897;50.812;4.430;2023-06-22T07:06:20;27.98;;;19.62;;
24799;SDS011;12897;50.812;4.430;2023-06-22T07:08:56;32.03;;;19.65;;
24799;SDS011;12897;50.812;4.430;2023-06-22T07:16:48;30.95;;;19.37;;
24799;SDS011;12897;50.812;4.430;2023-06-22T07:19:27;28.70;;;19.87;;
24799;SDS011;12897;50.812;4.430;2023-06-22T07:27:06;28.40;;;19.02;;
24799;SDS011;12897;50.812;4.430;2023-06-22T07:29:47;23.35;;;16.97;;
24799;SDS011;12897;50.812;4.430;2023-06-22T07:32:19;28.05;;;19.20;;
24799;SDS011;12897;50.812;4.430;2023-06-22T07:34:54;29.10;;;16.52;;
24799;SDS011;12897;50.812;4.430;2023-06-22T07:40:09;28.83;;;17.00;;
24799;SDS011;12897;50.812;4.430;2023-06-22T07:45:51;27.95;;;17.35;;
24799;SDS011;12897;50.812;4.430;2023-06-22T07:51:02;23.45;;;16.17;;
24799;SDS011;12897;50.812;4.430;2023-06-22T07:58:47;25.35;;;17.00;;
24799;SDS011;12897;50.812;4.430;2023-06-22T08:01:33;30.77;;;18.27;;
24799;SDS011;12897;50.812;4.430;2023-06-22T08:03:55;28.47;;;17.40;;
24799;SDS011;12897;50.812;4.430;2023-06-22T08:06:34;25.02;;;17.50;;
24799;SDS011;12897;50.812;4.430;2023-06-22T08:09:10;26.27;;;16.93;;
24799;SDS011;12897;50.812;4.430;2023-06-22T08:11:39;27.27;;;16.30;;
24799;SDS011;12897;50.812;4.430;2023-06-22T08:16:53;24.57;;;16.67;;
24799;SDS011;12897;50.812;4.430;2023-06-22T08:19:29;25.30;;;16.52;;
24799;SDS011;12897;50.812;4.430;2023-06-22T08:22:12;26.12;;;17.60;;
24799;SDS011;12897;50.812;4.430;2023-06-22T08:24:54;24.98;;;16.60;;
24799;SDS011;12897;50.812;4.430;2023-06-22T08:27:28;22.00;;;16.50;;
24799;SDS011;12897;50.812;4.430;2023-06-22T08:30:10;29.75;;;17.32;;
24799;SDS011;12897;50.812;4.430;2023-06-22T08:32:46;23.67;;;16.85;;
24799;SDS011;12897;50.812;4.430;2023-06-22T08:35:17;24.00;;;18.20;;
24799;SDS011;12897;50.812;4.430;2023-06-22T08:40:44;26.75;;;17.45;;
24799;SDS011;12897;50.812;4.430;2023-06-22T08:48:22;31.87;;;18.23;;
24799;SDS011;12897;50.812;4.430;2023-06-22T08:51:04;24.52;;;17.65;;
24799;SDS011;12897;50.812;4.430;2023-06-22T08:56:11;28.35;;;17.65;;
24799;SDS011;12897;50.812;4.430;2023-06-22T09:01:24;26.62;;;17.95;;
24799;SDS011;12897;50.812;4.430;2023-06-22T09:03:55;30.62;;;16.37;;
24799;SDS011;12897;50.812;4.430;2023-06-22T09:06:35;24.52;;;17.73;;
24799;SDS011;12897;50.812;4.430;2023-06-22T09:11:45;25.10;;;17.17;;
24799;SDS011;12897;50.812;4.430;2023-06-22T09:14:20;21.97;;;16.40;;
24799;SDS011;12897;50.812;4.430;2023-06-22T09:17:34;26.57;;;16.12;;
24799;SDS011;12897;50.812;4.430;2023-06-22T09:19:39;24.25;;;16.35;;
24799;SDS011;12897;50.812;4.430;2023-06-22T09:22:28;22.37;;;16.75;;
24799;SDS011;12897;50.812;4.430;2023-06-22T09:24:45;27.13;;;17.50;;
24799;SDS011;12897;50.812;4.430;2023-06-22T09:27:16;29.15;;;16.57;;
24799;SDS011;12897;50.812;4.430;2023-06-22T09:29:49;26.68;;;17.05;;
24799;SDS011;12897;50.812;4.430;2023-06-22T09:32:18;29.15;;;18.27;;
24799;SDS011;12897;50.812;4.430;2023-06-22T09:34:46;37.78;;;19.80;;
24799;SDS011;12897;50.812;4.430;2023-06-22T09:37:13;35.05;;;19.52;;
24799;SDS011;12897;50.812;4.430;2023-06-22T09:39:43;33.42;;;18.85;;
24799;SDS011;12897;50.812;4.430;2023-06-22T09:42:23;30.80;;;18.00;;
24799;SDS011;12897;50.812;4.430;2023-06-22T09:47:29;28.05;;;17.23;;
24799;SDS011;12897;50.812;4.430;2023-06-22T09:49:57;24.18;;;16.17;;
24799;SDS011;12897;50.812;4.430;2023-06-22T09:52:26;22.20;;;16.65;;
24799;SDS011;12897;50.812;4.430;2023-06-22T09:54:55;29.65;;;19.02;;
24799;SDS011;12897;50.812;4.430;2023-06-22T09:57:29;26.60;;;17.20;;
24799;SDS011;12897;50.812;4.430;2023-06-22T10:00:05;27.67;;;19.12;;
24799;SDS011;12897;50.812;4.430;2023-06-22T10:02:35;33.63;;;19.23;;
24799;SDS011;12897;50.812;4.430;2023-06-22T10:05:11;31.82;;;19.70;;
24799;SDS011;12897;50.812;4.430;2023-06-22T10:07:43;28.42;;;20.17;;
24799;SDS011;12897;50.812;4.430;2023-06-22T10:10:13;27.58;;;18.25;;
24799;SDS011;12897;50.812;4.430;2023-06-22T10:12:55;28.95;;;17.87;;
24799;SDS011;12897;50.812;4.430;2023-06-22T10:15:27;28.57;;;19.75;;
24799;SDS011;12897;50.812;4.430;2023-06-22T10:23:02;32.17;;;21.77;;
24799;SDS011;12897;50.812;4.430;2023-06-22T10:25:46;36.68;;;20.60;;
24799;SDS011;12897;50.812;4.430;2023-06-22T10:28:17;31.93;;;21.52;;
24799;SDS011;12897;50.812;4.430;2023-06-22T10:30:59;36.55;;;23.12;;
24799;SDS011;12897;50.812;4.430;2023-06-22T10:33:53;27.42;;;19.45;;
24799;SDS011;12897;50.812;4.430;2023-06-22T10:39:09;36.93;;;25.15;;
24799;SDS011;12897;50.812;4.430;2023-06-22T10:41:37;35.68;;;24.18;;
24799;SDS011;12897;50.812;4.430;2023-06-22T10:44:10;39.65;;;24.60;;
24799;SDS011;12897;50.812;4.430;2023-06-22T10:46:45;39.65;;;27.13;;
24799;SDS011;12897;50.812;4.430;2023-06-22T10:52:00;40.70;;;26.30;;
24799;SDS011;12897;50.812;4.430;2023-06-22T10:54:29;33.33;;;24.77;;
24799;SDS011;12897;50.812;4.430;2023-06-22T10:57:05;36.80;;;26.82;;
24799;SDS011;12897;50.812;4.430;2023-06-22T11:05:13;43.02;;;29.32;;
24799;SDS011;12897;50.812;4.430;2023-06-22T11:08:13;38.50;;;26.80;;
24799;SDS011;12897;50.812;4.430;2023-06-22T11:10:37;41.58;;;30.20;;
24799;SDS011;12897;50.812;4.430;2023-06-22T11:13:04;42.25;;;28.90;;
24799;SDS011;12897;50.812;4.430;2023-06-22T11:18:30;47.78;;;30.25;;
24799;SDS011;12897;50.812;4.430;2023-06-22T11:23:33;41.77;;;28.75;;
24799;SDS011;12897;50.812;4.430;2023-06-22T11:25:59;45.73;;;31.50;;
24799;SDS011;12897;50.812;4.430;2023-06-22T11:28:28;47.08;;;30.43;;
24799;SDS011;12897;50.812;4.430;2023-06-22T11:30:58;39.03;;;30.50;;
24799;SDS011;12897;50.812;4.430;2023-06-22T11:33:28;44.90;;;30.88;;
24799;SDS011;12897;50.812;4.430;2023-06-22T11:35:57;44.58;;;30.35;;
24799;SDS011;12897;50.812;4.430;2023-06-22T11:38:30;44.77;;;30.90;;
24799;SDS011;12897;50.812;4.430;2023-06-22T11:43:40;45.50;;;32.83;;
24799;SDS011;12897;50.812;4.430;2023-06-22T11:46:10;51.45;;;32.88;;
24799;SDS011;12897;50.812;4.430;2023-06-22T11:48:54;45.85;;;30.97;;
24799;SDS011;12897;50.812;4.430;2023-06-22T11:51:21;45.40;;;32.25;;
24799;SDS011;12897;50.812;4.430;2023-06-22T11:53:51;46.95;;;31.17;;
24799;SDS011;12897;50.812;4.430;2023-06-22T11:56:23;46.58;;;31.55;;
24799;SDS011;12897;50.812;4.430;2023-06-22T11:58:53;46.90;;;31.52;;
24799;SDS011;12897;50.812;4.430;2023-06-22T12:01:27;46.18;;;30.95;;
24799;SDS011;12897;50.812;4.430;2023-06-22T12:03:58;47.30;;;32.20;;
24799;SDS011;12897;50.812;4.430;2023-06-22T12:06:32;43.45;;;30.30;;
24799;SDS011;12897;50.812;4.430;2023-06-22T12:09:05;51.20;;;32.73;;
24799;SDS011;12897;50.812;4.430;2023-06-22T12:11:46;46.75;;;32.55;;
24799;SDS011;12897;50.812;4.430;2023-06-22T12:14:20;50.45;;;31.57;;
24799;SDS011;12897;50.812;4.430;2023-06-22T12:36:46;46.35;;;31.52;;
24799;SDS011;12897;50.812;4.430;2023-06-22T12:39:19;47.43;;;33.58;;
24799;SDS011;12897;50.812;4.430;2023-06-22T12:41:56;55.25;;;34.13;;
24799;SDS011;12897;50.812;4.430;2023-06-22T12:44:29;48.78;;;34.20;;
24799;SDS011;12897;50.812;4.430;2023-06-22T12:47:07;48.90;;;33.25;;
24799;SDS011;12897;50.812;4.430;2023-06-22T12:49:41;47.38;;;34.90;;
24799;SDS011;12897;50.812;4.430;2023-06-22T12:52:12;59.65;;;37.03;;
24799;SDS011;12897;50.812;4.430;2023-06-22T12:57:23;54.45;;;38.48;;
24799;SDS011;12897;50.812;4.430;2023-06-22T12:59:54;52.10;;;36.20;;
24799;SDS011;12897;50.812;4.430;2023-06-22T13:02:27;65.32;;;40.73;;
24799;SDS011;12897;50.812;4.430;2023-06-22T13:04:56;60.92;;;39.13;;
24799;SDS011;12897;50.812;4.430;2023-06-22T13:07:28;58.23;;;40.05;;
24799;SDS011;12897;50.812;4.430;2023-06-22T13:10:01;65.80;;;41.75;;
24799;SDS011;12897;50.812;4.430;2023-06-22T13:12:35;61.40;;;42.70;;
24799;SDS011;12897;50.812;4.430;2023-06-22T13:15:11;70.92;;;46.23;;
24799;SDS011;12897;50.812;4.430;2023-06-22T13:17:45;63.38;;;42.13;;
24799;SDS011;12897;50.812;4.430;2023-06-22T13:20:05;69.17;;;45.70;;
24799;SDS011;12897;50.812;4.430;2023-06-22T13:22:37;76.95;;;45.55;;
24799;SDS011;12897;50.812;4.430;2023-06-22T13:25:10;74.17;;;46.92;;
24799;SDS011;12897;50.812;4.430;2023-06-22T13:27:42;69.82;;;45.75;;
24799;SDS011;12897;50.812;4.430;2023-06-22T13:32:45;75.57;;;48.30;;
24799;SDS011;12897;50.812;4.430;2023-06-22T13:35:20;72.17;;;45.10;;
24799;SDS011;12897;50.812;4.430;2023-06-22T13:37:48;73.62;;;47.05;;
24799;SDS011;12897;50.812;4.430;2023-06-22T13:40:16;72.72;;;46.20;;
24799;SDS011;12897;50.812;4.430;2023-06-22T13:42:46;72.00;;;44.90;;
24799;SDS011;12897;50.812;4.430;2023-06-22T13:45:28;60.15;;;42.88;;
24799;SDS011;12897;50.812;4.430;2023-06-22T13:47:51;63.25;;;43.33;;
24799;SDS011;12897;50.812;4.430;2023-06-22T13:50:25;71.45;;;44.20;;
24799;SDS011;12897;50.812;4.430;2023-06-22T13:55:30;61.73;;;40.45;;
24799;SDS011;12897;50.812;4.430;2023-06-22T13:57:59;62.25;;;42.30;;
24799;SDS011;12897;50.812;4.430;2023-06-22T14:00:28;56.42;;;40.28;;
24799;SDS011;12897;50.812;4.430;2023-06-22T14:02:58;60.23;;;41.75;;
24799;SDS011;12897;50.812;4.430;2023-06-22T14:05:29;52.98;;;38.17;;
24799;SDS011;12897;50.812;4.430;2023-06-22T14:08:03;61.25;;;40.88;;
24799;SDS011;12897;50.812;4.430;2023-06-22T14:10:30;61.23;;;40.65;;
24799;SDS011;12897;50.812;4.430;2023-06-22T14:13:03;63.75;;;42.45;;
24799;SDS011;12897;50.812;4.430;2023-06-22T14:15:31;72.87;;;43.23;;
24799;SDS011;12897;50.812;4.430;2023-06-22T14:18:07;69.72;;;44.13;;
24799;SDS011;12897;50.812;4.430;2023-06-22T14:20:33;63.45;;;39.98;;
24799;SDS011;12897;50.812;4.430;2023-06-22T14:23:03;66.25;;;43.25;;
24799;SDS011;12897;50.812;4.430;2023-06-22T14:25:38;69.85;;;42.75;;
24799;SDS011;12897;50.812;4.430;2023-06-22T14:28:03;66.53;;;43.25;;
24799;SDS011;12897;50.812;4.430;2023-06-22T14:30:32;66.05;;;44.25;;
24799;SDS011;12897;50.812;4.430;2023-06-22T14:33:05;67.15;;;45.15;;
24799;SDS011;12897;50.812;4.430;2023-06-22T14:35:40;68.52;;;45.88;;
24799;SDS011;12897;50.812;4.430;2023-06-22T14:38:22;73.42;;;45.67;;
24799;SDS011;12897;50.812;4.430;2023-06-22T14:40:52;70.30;;;46.55;;
24799;SDS011;12897;50.812;4.430;2023-06-22T14:43:21;71.35;;;46.60;;
24799;SDS011;12897;50.812;4.430;2023-06-22T14:45:51;68.92;;;45.03;;
24799;SDS011;12897;50.812;4.430;2023-06-22T14:48:21;70.57;;;47.55;;
24799;SDS011;12897;50.812;4.430;2023-06-22T14:53:41;95.62;;;50.80;;
24799;SDS011;12897;50.812;4.430;2023-06-22T14:56:00;81.50;;;52.85;;
24799;SDS011;12897;50.812;4.430;2023-06-22T14:58:36;83.03;;;53.25;;
24799;SDS011;12897;50.812;4.430;2023-06-22T15:01:07;74.92;;;51.23;;
24799;SDS011;12897;50.812;4.430;2023-06-22T15:03:36;83.58;;;53.90;;
24799;SDS011;12897;50.812;4.430;2023-06-22T15:06:04;89.35;;;53.60;;
24799;SDS011;12897;50.812;4.430;2023-06-22T15:08:33;84.97;;;54.70;;
24799;SDS011;12897;50.812;4.430;2023-06-22T15:11:00;73.85;;;47.38;;
24799;SDS011;12897;50.812;4.430;2023-06-22T15:13:38;79.90;;;54.77;;
24799;SDS011;12897;50.812;4.430;2023-06-22T15:16:02;79.67;;;51.58;;
24799;SDS011;12897;50.812;4.430;2023-06-22T15:18:30;78.52;;;52.80;;
24799;SDS011;12897;50.812;4.430;2023-06-22T15:21:02;81.57;;;52.62;;
24799;SDS011;12897;50.812;4.430;2023-06-22T15:23:31;82.60;;;55.30;;
24799;SDS011;12897;50.812;4.430;2023-06-22T15:26:02;81.78;;;56.55;;
24799;SDS011;12897;50.812;4.430;2023-06-22T15:28:33;85.15;;;55.40;;
24799;SDS011;12897;50.812;4.430;2023-06-22T15:31:03;81.63;;;56.25;;
24799;SDS011;12897;50.812;4.430;2023-06-22T15:33:35;83.97;;;57.90;;
24799;SDS011;12897;50.812;4.430;2023-06-22T15:36:05;87.08;;;57.95;;
24799;SDS011;12897;50.812;4.430;2023-06-22T15:38:37;87.45;;;57.62;;
24799;SDS011;12897;50.812;4.430;2023-06-22T15:41:03;84.52;;;54.58;;
24799;SDS011;12897;50.812;4.430;2023-06-22T15:43:31;83.22;;;56.23;;
24799;SDS011;12897;50.812;4.430;2023-06-22T15:46:00;79.40;;;55.15;;
24799;SDS011;12897;50.812;4.430;2023-06-22T15:48:29;79.60;;;54.83;;
24799;SDS011;12897;50.812;4.430;2023-06-22T15:50:56;82.33;;;54.10;;
24799;SDS011;12897;50.812;4.430;2023-06-22T15:53:24;79.80;;;53.98;;
24799;SDS011;12897;50.812;4.430;2023-06-22T15:55:52;78.72;;;52.33;;
24799;SDS011;12897;50.812;4.430;2023-06-22T15:58:20;90.03;;;57.33;;
24799;SDS011;12897;50.812;4.430;2023-06-22T16:00:49;89.67;;;57.62;;
24799;SDS011;12897;50.812;4.430;2023-06-22T16:03:20;89.40;;;56.60;;
24799;SDS011;12897;50.812;4.430;2023-06-22T16:05:47;85.47;;;55.52;;
24799;SDS011;12897;50.812;4.430;2023-06-22T16:08:24;73.33;;;52.65;;
24799;SDS011;12897;50.812;4.430;2023-06-22T16:10:56;80.05;;;52.88;;
24799;SDS011;12897;50.812;4.430;2023-06-22T16:13:23;78.05;;;50.55;;
24799;SDS011;12897;50.812;4.430;2023-06-22T16:15:50;78.50;;;51.33;;
24799;SDS011;12897;50.812;4.430;2023-06-22T16:18:19;76.40;;;53.78;;
24799;SDS011;12897;50.812;4.430;2023-06-22T16:20:50;80.22;;;54.93;;
24799;SDS011;12897;50.812;4.430;2023-06-22T16:23:17;84.22;;;56.77;;
24799;SDS011;12897;50.812;4.430;2023-06-22T16:25:47;81.30;;;55.43;;
24799;SDS011;12897;50.812;4.430;2023-06-22T16:28:15;76.53;;;53.92;;
24799;SDS011;12897;50.812;4.430;2023-06-22T16:30:43;79.32;;;52.00;;
24799;SDS011;12897;50.812;4.430;2023-06-22T16:33:18;82.85;;;54.65;;
24799;SDS011;12897;50.812;4.430;2023-06-22T16:35:51;82.47;;;58.48;;
24799;SDS011;12897;50.812;4.430;2023-06-22T16:38:20;86.55;;;61.90;;
24799;SDS011;12897;50.812;4.430;2023-06-22T16:40:48;86.10;;;62.23;;
24799;SDS011;12897;50.812;4.430;2023-06-22T16:43:17;83.03;;;59.08;;
24799;SDS011;12897;50.812;4.430;2023-06-22T16:48:24;80.92;;;57.03;;
24799;SDS011;12897;50.812;4.430;2023-06-22T16:50:52;88.50;;;59.35;;
24799;SDS011;12897;50.812;4.430;2023-06-22T16:53:21;84.85;;;57.95;;
24799;SDS011;12897;50.812;4.430;2023-06-22T16:55:53;87.27;;;60.75;;
24799;SDS011;12897;50.812;4.430;2023-06-22T16:58:25;77.82;;;57.23;;
24799;SDS011;12897;50.812;4.430;2023-06-22T17:00:53;89.72;;;58.50;;
24799;SDS011;12897;50.812;4.430;2023-06-22T17:03:28;80.70;;;54.33;;